Christos Xxxvii — SVA6992 — position and weather

sailwx.info

Track history (hours):
 
Tides and Currents Weather Stations Pressure Air Temp Water Temp Dewpoint Dewpoint Depression Visibility Wind Speed Wind Dir Waves Ship Positions

Christos Xxxvii

Last reported at 2017-Oct-21 19:01 UTC. Time now 2017-Oct-22 22:53 UTC.
Position N 37°58' E 023°33'.

Length 26 m.

Type: Tug. MMSI: 239951200.

Date/timePositionNaut miles runAvg speedWind from/ knotsBaromVisibWave heightAir tempDewpointWater temp
2017-Oct-21 19:01N 37°58' E 023°33'0 0.0
2017-Oct-21 19:00N 37°58' E 023°33'4 6.9
2017-Oct-21 18:28N 38°01' E 023°35'1 1.1
2017-Oct-21 17:59N 38°01' E 023°36'0 0.8
2017-Oct-21 17:29N 38°02' E 023°35'0 0.8
2017-Oct-21 16:53N 38°02' E 023°36'0 0.0
2017-Oct-21 16:29N 38°02' E 023°36'0 0.0
2017-Oct-20 14:59N 38°01' E 023°36'0 0.1
2017-Oct-20 12:54N 38°02' E 023°36'0 0.3
2017-Oct-20 12:16N 38°02' E 023°36'1 2.5
2017-Oct-20 11:59N 38°01' E 023°35'4 7.4
2017-Oct-20 11:29N 37°58' E 023°33'0 0.0
2017-Oct-20 11:00N 37°58' E 023°33'0 0.8
2017-Oct-20 10:30N 37°58' E 023°33'1 1.8
2017-Oct-20 10:00N 37°57' E 023°34'1 1.0
2017-Oct-20 09:30N 37°58' E 023°33'1 1.2
2017-Oct-20 08:59N 37°57' E 023°33'0 0.0
2017-Oct-20 08:29N 37°57' E 023°33'0 0.0
2017-Oct-20 07:59N 37°57' E 023°33'0 0.0
2017-Oct-20 07:29N 37°57' E 023°33'0 0.0
2017-Oct-20 06:59N 37°57' E 023°33'0 0.0
2017-Oct-20 06:29N 37°57' E 023°33'0 0.0
2017-Oct-20 05:59N 37°57' E 023°33'0 0.0
2017-Oct-20 05:29N 37°57' E 023°33'0 0.0
2017-Oct-20 04:59N 37°57' E 023°33'0 0.1
2017-Oct-20 04:29N 37°57' E 023°33'3 6.0
2017-Oct-20 04:00N 38°00' E 023°33'2 4.5
2017-Oct-20 03:31N 38°02' E 023°31'1 0.1
2017-Oct-19 22:25N 38°02' E 023°30'0 0.7
2017-Oct-19 22:00N 38°02' E 023°30'0 0.8
2017-Oct-19 21:30N 38°02' E 023°31'1 0.5
2017-Oct-19 20:22N 38°02' E 023°30'0 0.0
2017-Oct-19 16:55N 38°02' E 023°30'0 0.0
2017-Oct-19 16:30N 38°02' E 023°30'4 2.2
2017-Oct-19 14:30N 38°02' E 023°36'0 0.2
2017-Oct-19 12:30N 38°01' E 023°35'0 0.0
2017-Oct-19 10:21N 38°01' E 023°35'3 9.2
2017-Oct-19 09:59N 37°59' E 023°33'2 2.7
2017-Oct-19 09:25N 37°57' E 023°33'0 0.0
2017-Oct-19 08:52N 37°57' E 023°33'0 1.2
2017-Oct-19 08:28N 37°57' E 023°33'1 1.5
2017-Oct-19 07:59N 37°58' E 023°33'0 0.6
2017-Oct-19 07:30N 37°58' E 023°33'0 0.0
2017-Oct-19 07:00N 37°58' E 023°33'0 0.0
2017-Oct-19 06:30N 37°58' E 023°33'0 0.0
2017-Oct-19 05:57N 37°58' E 023°33'0 0.0
2017-Oct-19 05:30N 37°58' E 023°33'0 0.0
2017-Oct-19 05:00N 37°58' E 023°33'0 0.0
2017-Oct-19 04:30N 37°58' E 023°33'0 0.0
2017-Oct-18 09:16N 37°58' E 023°33'0 0.0
2017-Oct-18 08:55N 37°58' E 023°33'0 0.0
2017-Oct-18 08:28N 37°58' E 023°33'0 0.0
2017-Oct-18 07:58N 37°58' E 023°33'2 4.5
2017-Oct-18 07:30N 37°60' E 023°33'3 0.2
2017-Oct-17 18:23N 38°02' E 023°36'0 0.3
2017-Oct-17 17:34N 38°02' E 023°36'0 0.7
2017-Oct-17 17:18N 38°02' E 023°35'1 1.9
2017-Oct-17 16:51N 38°01' E 023°35'0 0.4
2017-Oct-17 16:28N 38°01' E 023°35'0 0.9
2017-Oct-17 15:55N 38°01' E 023°35'0 0.9
2017-Oct-17 15:30N 38°02' E 023°36'1 1.6
2017-Oct-17 15:00N 38°01' E 023°35'1 0.1
2017-Oct-17 09:20N 38°01' E 023°35'1 2.9
2017-Oct-17 08:58N 38°01' E 023°34'1 1.7
2017-Oct-17 08:23N 38°00' E 023°33'2 1.2
2017-Oct-17 06:23N 37°58' E 023°33'0 0.0
2017-Oct-17 05:59N 37°58' E 023°33'0 0.0
2017-Oct-17 05:20N 37°58' E 023°33'0 0.0
2017-Oct-16 15:09N 37°58' E 023°33'0 2.9
2017-Oct-16 15:01N 37°58' E 023°33'4 7.4
2017-Oct-16 14:24N 38°02' E 023°36'0 0.2
2017-Oct-16 13:10N 38°02' E 023°35'0 1.6
2017-Oct-16 12:58N 38°02' E 023°36'0 0.0
2017-Oct-16 12:28N 38°02' E 023°36'0 0.0
2017-Oct-16 11:58N 38°02' E 023°36'0 0.0
2017-Oct-16 11:27N 38°02' E 023°36'0 0.0
2017-Oct-16 07:15N 38°02' E 023°36'0 0.0
2017-Oct-16 03:33N 38°02' E 023°36'0 0.0
2017-Oct-15 21:34N 38°02' E 023°36'0 0.1
2017-Oct-15 21:25N 38°02' E 023°36'0 0.0
2017-Oct-15 21:01N 38°02' E 023°36'0 0.0
2017-Oct-15 20:23N 38°02' E 023°36'0 0.0
2017-Oct-15 19:41N 38°02' E 023°36'0 0.0
2017-Oct-15 19:23N 38°02' E 023°36'0 0.3
2017-Oct-15 18:59N 38°02' E 023°36'0 0.1
2017-Oct-15 18:28N 38°02' E 023°36'1 2.0
2017-Oct-15 17:59N 38°01' E 023°35'1 0.6
2017-Oct-15 16:22N 38°02' E 023°36'0 0.0
2017-Oct-15 15:58N 38°02' E 023°36'0 0.0
2017-Oct-15 11:04N 38°02' E 023°36'0 0.2
2017-Oct-15 08:13N 38°01' E 023°36'1 2.9
2017-Oct-15 07:49N 38°00' E 023°35'0 0.0
2017-Oct-14 13:13N 38°01' E 023°35'1 1.7
2017-Oct-14 12:40N 38°01' E 023°36'1 4.2
2017-Oct-14 12:30N 38°01' E 023°35'1 1.8
2017-Oct-14 11:53N 38°00' E 023°35'0 0.4
2017-Oct-14 11:05N 38°00' E 023°35'0 2.7
2017-Oct-14 11:01N 38°00' E 023°35'1 0.8
2017-Oct-14 10:03N 38°01' E 023°36'0 3.5
2017-Oct-14 09:58N 38°01' E 023°35'0 0.2
2017-Oct-14 08:32N 38°01' E 023°35'0 9.5
2017-Oct-14 08:30N 38°01' E 023°35'3 6.9
2017-Oct-14 08:00N 37°58' E 023°33'1 2.4
2017-Oct-14 07:30N 37°58' E 023°35'1 1.0
2017-Oct-14 07:00N 37°57' E 023°35'1 2.2
2017-Oct-14 06:30N 37°57' E 023°34'0 0.8
2017-Oct-14 06:00N 37°58' E 023°33'0 0.0
2017-Oct-14 05:30N 37°58' E 023°33'0 0.0
2017-Oct-14 05:00N 37°58' E 023°33'0 0.0
2017-Oct-14 04:30N 37°58' E 023°33'0 0.0
2017-Oct-13 14:01N 37°58' E 023°33'0 0.0
2017-Oct-13 14:00N 37°58' E 023°33'0 0.5
2017-Oct-13 13:30N 37°58' E 023°33'1 2.0
2017-Oct-13 13:00N 37°57' E 023°34'2 3.1
2017-Oct-13 12:30N 37°57' E 023°36'0 0.5
2017-Oct-13 11:58N 37°57' E 023°37'0 0.1
2017-Oct-13 11:22N 37°57' E 023°36'0 0.1
2017-Oct-13 10:58N 37°57' E 023°36'0 0.0
2017-Oct-13 10:30N 37°57' E 023°36'0 1.0
2017-Oct-13 10:00N 37°57' E 023°36'2 3.9
2017-Oct-13 09:30N 37°57' E 023°33'0 0.7
2017-Oct-13 08:59N 37°58' E 023°33'0 0.0
2017-Oct-13 08:29N 37°58' E 023°33'2 4.5
2017-Oct-13 08:00N 37°60' E 023°33'2 0.1
2017-Oct-12 09:10N 38°01' E 023°36'0 2.2
2017-Oct-12 08:59N 38°02' E 023°36'1 2.5
2017-Oct-12 08:30N 38°01' E 023°34'1 1.0
2017-Oct-12 07:19N 38°02' E 023°36'0 0.2
2017-Oct-12 05:11N 38°01' E 023°35'1 8.0
2017-Oct-12 05:00N 38°01' E 023°34'  
Track history (hours):
 
Tides and Currents Weather Stations Pressure Air Temp Water Temp Dewpoint Dewpoint Depression Visibility Wind Speed Wind Dir Waves Ship Positions

Christos Xxxvii

Last reported at 2017-Oct-21 19:01 UTC. Time now 2017-Oct-22 22:53 UTC.
Position N 37°58' E 023°33'.

Length 26 m.

Type: Tug. MMSI: 239951200.

Date/timePositionNaut miles runAvg speedWind from/ knotsBaromVisibWave heightAir tempDewpointWater temp
2017-Oct-21 19:01N 37°58' E 023°33'0 0.0
2017-Oct-21 19:00N 37°58' E 023°33'4 6.9
2017-Oct-21 18:28N 38°01' E 023°35'1 1.1
2017-Oct-21 17:59N 38°01' E 023°36'0 0.8
2017-Oct-21 17:29N 38°02' E 023°35'0 0.8
2017-Oct-21 16:53N 38°02' E 023°36'0 0.0
2017-Oct-21 16:29N 38°02' E 023°36'0 0.0
2017-Oct-20 14:59N 38°01' E 023°36'0 0.1
2017-Oct-20 12:54N 38°02' E 023°36'0 0.3
2017-Oct-20 12:16N 38°02' E 023°36'1 2.5
2017-Oct-20 11:59N 38°01' E 023°35'4 7.4
2017-Oct-20 11:29N 37°58' E 023°33'0 0.0
2017-Oct-20 11:00N 37°58' E 023°33'0 0.8
2017-Oct-20 10:30N 37°58' E 023°33'1 1.8
2017-Oct-20 10:00N 37°57' E 023°34'1 1.0
2017-Oct-20 09:30N 37°58' E 023°33'1 1.2
2017-Oct-20 08:59N 37°57' E 023°33'0 0.0
2017-Oct-20 08:29N 37°57' E 023°33'0 0.0
2017-Oct-20 07:59N 37°57' E 023°33'0 0.0
2017-Oct-20 07:29N 37°57' E 023°33'0 0.0
2017-Oct-20 06:59N 37°57' E 023°33'0 0.0
2017-Oct-20 06:29N 37°57' E 023°33'0 0.0
2017-Oct-20 05:59N 37°57' E 023°33'0 0.0
2017-Oct-20 05:29N 37°57' E 023°33'0 0.0
2017-Oct-20 04:59N 37°57' E 023°33'0 0.1
2017-Oct-20 04:29N 37°57' E 023°33'3 6.0
2017-Oct-20 04:00N 38°00' E 023°33'2 4.5
2017-Oct-20 03:31N 38°02' E 023°31'1 0.1
2017-Oct-19 22:25N 38°02' E 023°30'0 0.7
2017-Oct-19 22:00N 38°02' E 023°30'0 0.8
2017-Oct-19 21:30N 38°02' E 023°31'1 0.5
2017-Oct-19 20:22N 38°02' E 023°30'0 0.0
2017-Oct-19 16:55N 38°02' E 023°30'0 0.0
2017-Oct-19 16:30N 38°02' E 023°30'4 2.2
2017-Oct-19 14:30N 38°02' E 023°36'0 0.2
2017-Oct-19 12:30N 38°01' E 023°35'0 0.0
2017-Oct-19 10:21N 38°01' E 023°35'3 9.2
2017-Oct-19 09:59N 37°59' E 023°33'2 2.7
2017-Oct-19 09:25N 37°57' E 023°33'0 0.0
2017-Oct-19 08:52N 37°57' E 023°33'0 1.2
2017-Oct-19 08:28N 37°57' E 023°33'1 1.5
2017-Oct-19 07:59N 37°58' E 023°33'0 0.6
2017-Oct-19 07:30N 37°58' E 023°33'0 0.0
2017-Oct-19 07:00N 37°58' E 023°33'0 0.0
2017-Oct-19 06:30N 37°58' E 023°33'0 0.0
2017-Oct-19 05:57N 37°58' E 023°33'0 0.0
2017-Oct-19 05:30N 37°58' E 023°33'0 0.0
2017-Oct-19 05:00N 37°58' E 023°33'0 0.0
2017-Oct-19 04:30N 37°58' E 023°33'0 0.0
2017-Oct-18 09:16N 37°58' E 023°33'0 0.0
2017-Oct-18 08:55N 37°58' E 023°33'0 0.0
2017-Oct-18 08:28N 37°58' E 023°33'0 0.0
2017-Oct-18 07:58N 37°58' E 023°33'2 4.5
2017-Oct-18 07:30N 37°60' E 023°33'3 0.2
2017-Oct-17 18:23N 38°02' E 023°36'0 0.3
2017-Oct-17 17:34N 38°02' E 023°36'0 0.7
2017-Oct-17 17:18N 38°02' E 023°35'1 1.9
2017-Oct-17 16:51N 38°01' E 023°35'0 0.4
2017-Oct-17 16:28N 38°01' E 023°35'0 0.9
2017-Oct-17 15:55N 38°01' E 023°35'0 0.9
2017-Oct-17 15:30N 38°02' E 023°36'1 1.6
2017-Oct-17 15:00N 38°01' E 023°35'1 0.1
2017-Oct-17 09:20N 38°01' E 023°35'1 2.9
2017-Oct-17 08:58N 38°01' E 023°34'1 1.7
2017-Oct-17 08:23N 38°00' E 023°33'2 1.2
2017-Oct-17 06:23N 37°58' E 023°33'0 0.0
2017-Oct-17 05:59N 37°58' E 023°33'0 0.0
2017-Oct-17 05:20N 37°58' E 023°33'0 0.0
2017-Oct-16 15:09N 37°58' E 023°33'0 2.9
2017-Oct-16 15:01N 37°58' E 023°33'4 7.4
2017-Oct-16 14:24N 38°02' E 023°36'0 0.2
2017-Oct-16 13:10N 38°02' E 023°35'0 1.6
2017-Oct-16 12:58N 38°02' E 023°36'0 0.0
2017-Oct-16 12:28N 38°02' E 023°36'0 0.0
2017-Oct-16 11:58N 38°02' E 023°36'0 0.0
2017-Oct-16 11:27N 38°02' E 023°36'0 0.0
2017-Oct-16 07:15N 38°02' E 023°36'0 0.0
2017-Oct-16 03:33N 38°02' E 023°36'0 0.0
2017-Oct-15 21:34N 38°02' E 023°36'0 0.1
2017-Oct-15 21:25N 38°02' E 023°36'0 0.0
2017-Oct-15 21:01N 38°02' E 023°36'0 0.0
2017-Oct-15 20:23N 38°02' E 023°36'0 0.0
2017-Oct-15 19:41N 38°02' E 023°36'0 0.0
2017-Oct-15 19:23N 38°02' E 023°36'0 0.3
2017-Oct-15 18:59N 38°02' E 023°36'0 0.1
2017-Oct-15 18:28N 38°02' E 023°36'1 2.0
2017-Oct-15 17:59N 38°01' E 023°35'1 0.6
2017-Oct-15 16:22N 38°02' E 023°36'0 0.0
2017-Oct-15 15:58N 38°02' E 023°36'0 0.0
2017-Oct-15 11:04N 38°02' E 023°36'0 0.2
2017-Oct-15 08:13N 38°01' E 023°36'1 2.9
2017-Oct-15 07:49N 38°00' E 023°35'0 0.0
2017-Oct-14 13:13N 38°01' E 023°35'1 1.7
2017-Oct-14 12:40N 38°01' E 023°36'1 4.2
2017-Oct-14 12:30N 38°01' E 023°35'1 1.8
2017-Oct-14 11:53N 38°00' E 023°35'0 0.4
2017-Oct-14 11:05N 38°00' E 023°35'0 2.7
2017-Oct-14 11:01N 38°00' E 023°35'1 0.8
2017-Oct-14 10:03N 38°01' E 023°36'0 3.5
2017-Oct-14 09:58N 38°01' E 023°35'0 0.2
2017-Oct-14 08:32N 38°01' E 023°35'0 9.5
2017-Oct-14 08:30N 38°01' E 023°35'3 6.9
2017-Oct-14 08:00N 37°58' E 023°33'1 2.4
2017-Oct-14 07:30N 37°58' E 023°35'1 1.0
2017-Oct-14 07:00N 37°57' E 023°35'1 2.2
2017-Oct-14 06:30N 37°57' E 023°34'0 0.8
2017-Oct-14 06:00N 37°58' E 023°33'0 0.0
2017-Oct-14 05:30N 37°58' E 023°33'0 0.0
2017-Oct-14 05:00N 37°58' E 023°33'0 0.0
2017-Oct-14 04:30N 37°58' E 023°33'0 0.0
2017-Oct-13 14:01N 37°58' E 023°33'0 0.0
2017-Oct-13 14:00N 37°58' E 023°33'0 0.5
2017-Oct-13 13:30N 37°58' E 023°33'1 2.0
2017-Oct-13 13:00N 37°57' E 023°34'2 3.1
2017-Oct-13 12:30N 37°57' E 023°36'0 0.5
2017-Oct-13 11:58N 37°57' E 023°37'0 0.1
2017-Oct-13 11:22N 37°57' E 023°36'0 0.1
2017-Oct-13 10:58N 37°57' E 023°36'0 0.0
2017-Oct-13 10:30N 37°57' E 023°36'0 1.0
2017-Oct-13 10:00N 37°57' E 023°36'2 3.9
2017-Oct-13 09:30N 37°57' E 023°33'0 0.7
2017-Oct-13 08:59N 37°58' E 023°33'0 0.0
2017-Oct-13 08:29N 37°58' E 023°33'2 4.5
2017-Oct-13 08:00N 37°60' E 023°33'2 0.1
2017-Oct-12 09:10N 38°01' E 023°36'0 2.2
2017-Oct-12 08:59N 38°02' E 023°36'1 2.5
2017-Oct-12 08:30N 38°01' E 023°34'1 1.0
2017-Oct-12 07:19N 38°02' E 023°36'0 0.2
2017-Oct-12 05:11N 38°01' E 023°35'1 8.0
2017-Oct-12 05:00N 38°01' E 023°34'  

Dump ship's entire track history